Time;durP1;ratioP1;P1;durP2;ratioP2;P2;SDS_P1;SDS_P2;PMS_P1;PMS_P2;Temp;Humidity;BMP_temperature;BMP_pressure;BME280_temperature;BME280_humidity;BME280_pressure;Samples;Min_cycle;Max_cycle;Signal;HPM_P1;HPM_P2
2022/12/02 00:01:14;;;;;;;;;;;;;;;20.70;25.58;98314.84;5039803;28;892;-77
2022/12/02 00:03:40;;;;;;;;;;;;;;;20.39;26.56;98316.97;5040128;28;936;-78
2022/12/02 00:06:14;;;;;;;;;;;;;;;20.57;25.98;98315.88;5005662;28;969;-78
2022/12/02 00:08:40;;;;;;;;;;;;;;;20.49;26.12;98315.22;5057198;28;952;-77
2022/12/02 00:11:16;;;;;;;;;;;;;;;20.72;25.67;98317.25;5039300;28;859;-77
2022/12/02 00:13:42;;;;;;;;;;;;;;;20.64;25.85;98310.94;5005678;28;910;-77
2022/12/02 00:16:26;;;;;;;;;;;;;;;20.45;25.87;98311.63;5057036;28;893;-77
2022/12/02 00:18:51;;;;;;;;;;;;;;;20.52;26.00;98308.69;5057034;28;1910;-77
2022/12/02 00:21:17;;;;;;;;;;;;;;;20.91;25.44;98310.03;5057283;28;853;-77
2022/12/02 00:23:42;;;;;;;;;;;;;;;20.70;25.69;98309.19;5039695;28;968;-77
2022/12/02 00:26:08;;;;;;;;;;;;;;;20.66;25.66;98308.44;5057509;28;886;-77
2022/12/02 00:28:33;;;;;;;;;;;;;;;20.70;25.67;98300.72;5056838;28;852;-77
2022/12/02 00:30:59;;;;;;;;;;;;;;;20.73;25.66;98297.03;5056592;28;857;-77
2022/12/02 00:33:24;;;;;;;;;;;;;;;20.55;25.74;98302.19;5057409;28;900;-77
2022/12/02 00:35:50;;;;;;;;;;;;;;;20.25;26.23;98305.91;5057249;28;1279;-77
2022/12/02 00:38:15;;;;;;;;;;;;;;;20.42;26.21;98309.69;5056844;28;1981;-77
2022/12/02 00:40:41;;;;;;;;;;;;;;;20.63;25.78;98303.69;5056723;28;938;-78
2022/12/02 00:48:48;;;;;;;;;;;;;;;20.61;25.84;98308.94;4940040;29;1281;-77
2022/12/02 00:51:13;;;;;;;;;;;;;;;20.71;25.81;98316.44;4956304;29;1012;-77
2022/12/02 00:53:39;;;;;;;;;;;;;;;20.64;25.56;98316.59;4956356;29;906;-77
2022/12/02 00:56:04;;;;;;;;;;;;;;;20.27;26.22;98321.22;4956319;29;970;-77
2022/12/02 00:58:30;;;;;;;;;;;;;;;20.59;25.71;98314.25;4956201;28;1914;-77
2022/12/02 01:00:56;;;;;;;;;;;;;;;20.53;25.91;98315.97;4940292;29;1293;-77
2022/12/02 01:03:21;;;;;;;;;;;;;;;20.61;25.89;98314.59;4939967;29;953;-77
2022/12/02 01:05:46;;;;;;;;;;;;;;;20.69;25.59;98321.75;4940086;29;1042;-78
2022/12/02 01:08:12;;;;;;;;;;;;;;;20.49;25.87;98309.56;4955958;29;874;-77
2022/12/02 01:10:37;;;;;;;;;;;;;;;20.43;25.92;98314.09;4956066;29;966;-77
2022/12/02 01:13:03;;;;;;;;;;;;;;;20.59;25.78;98311.41;4901393;29;1540;-77
2022/12/02 01:15:29;;;;;;;;;;;;;;;20.55;26.17;98316.34;4936365;29;1014;-77
2022/12/02 01:17:54;;;;;;;;;;;;;;;20.63;25.83;98315.00;4920813;29;1907;-77
2022/12/02 01:20:20;;;;;;;;;;;;;;;20.88;25.54;98308.06;4920913;29;1037;-78
2022/12/02 01:22:45;;;;;;;;;;;;;;;20.59;25.84;98310.63;4922955;29;965;-78
2022/12/02 01:25:11;;;;;;;;;;;;;;;20.09;26.38;98309.38;4955617;29;1304;-77
2022/12/02 01:27:37;;;;;;;;;;;;;;;20.42;26.40;98312.50;4955814;29;947;-76
2022/12/02 01:30:04;;;;;;;;;;;;;;;20.57;25.99;98313.84;4955046;28;938;-77
2022/12/02 01:32:30;;;;;;;;;;;;;;;20.52;25.94;98311.53;4955547;29;961;-77
2022/12/02 01:34:57;;;;;;;;;;;;;;;20.59;25.90;98314.25;4955617;29;944;-77
2022/12/02 01:37:22;;;;;;;;;;;;;;;20.79;25.54;98300.94;4939264;29;1918;-77
2022/12/02 01:39:47;;;;;;;;;;;;;;;20.67;25.96;98318.53;4955270;29;1192;-77
2022/12/02 01:42:13;;;;;;;;;;;;;;;20.72;25.53;98317.25;4955630;29;1066;-77
2022/12/02 01:44:40;;;;;;;;;;;;;;;20.19;26.54;98314.06;4984901;28;982;-78
2022/12/02 01:47:05;;;;;;;;;;;;;;;20.49;25.91;98316.03;5027800;28;982;-77
2022/12/02 01:49:30;;;;;;;;;;;;;;;20.63;25.90;98308.53;5038313;28;1217;-78
2022/12/02 01:51:56;;;;;;;;;;;;;;;20.72;25.62;98301.06;5037956;28;921;-77
2022/12/02 01:54:21;;;;;;;;;;;;;;;20.66;25.78;98304.84;5021699;28;1119;-77
2022/12/02 01:56:47;;;;;;;;;;;;;;;20.45;25.81;98303.94;5038064;28;946;-77
2022/12/02 01:59:13;;;;;;;;;;;;;;;20.37;26.24;98296.03;5021554;28;1976;-77
2022/12/02 02:01:39;;;;;;;;;;;;;;;20.35;26.43;98298.47;5037632;28;1052;-77
2022/12/02 02:04:04;;;;;;;;;;;;;;;20.50;26.15;98300.66;5037948;28;919;-77
2022/12/02 02:06:31;;;;;;;;;;;;;;;20.58;26.09;98307.00;5037990;28;1169;-78
2022/12/02 02:08:57;;;;;;;;;;;;;;;20.66;25.71;98302.00;5021336;28;1092;-78
2022/12/02 02:11:22;;;;;;;;;;;;;;;20.68;25.61;98306.00;5038138;28;1111;-78
2022/12/02 02:13:48;;;;;;;;;;;;;;;20.35;26.12;98304.13;5021055;28;1136;-78
2022/12/02 02:16:13;;;;;;;;;;;;;;;20.49;25.98;98306.75;5021425;28;1860;-78
2022/12/02 02:18:39;;;;;;;;;;;;;;;20.67;25.73;98310.03;5021278;28;1910;-77
2022/12/02 02:21:04;;;;;;;;;;;;;;;20.48;26.11;98307.97;5037369;28;857;-77
2022/12/02 02:23:30;;;;;;;;;;;;;;;20.47;26.00;98310.00;5021358;28;1089;-77
2022/12/02 02:25:57;;;;;;;;;;;;;;;20.62;25.80;98307.72;5055375;28;1051;-77
2022/12/02 02:28:27;;;;;;;;;;;;;;;20.81;25.45;98309.78;4977572;28;1349;-77
2022/12/02 02:30:52;;;;;;;;;;;;;;;20.40;26.05;98317.78;4977498;28;1165;-78
2022/12/02 02:33:18;;;;;;;;;;;;;;;20.41;26.08;98316.53;4993899;28;944;-78
2022/12/02 02:35:44;;;;;;;;;;;;;;;20.40;26.08;98312.91;4993278;28;1208;-78
2022/12/02 02:38:11;;;;;;;;;;;;;;;20.55;26.20;98319.16;4993565;28;1967;-77
2022/12/02 02:40:37;;;;;;;;;;;;;;;20.53;25.93;98310.31;4959789;28;1227;-77
2022/12/02 02:43:02;;;;;;;;;;;;;;;20.65;25.93;98323.03;4945872;28;1180;-77
2022/12/02 02:45:29;;;;;;;;;;;;;;;20.76;25.61;98307.47;4945882;28;1404;-77
2022/12/02 02:47:57;;;;;;;;;;;;;;;20.61;26.04;98320.25;4961782;28;1358;-77
2022/12/02 02:50:24;;;;;;;;;;;;;;;20.38;26.28;98317.41;4961701;28;1155;-77
2022/12/02 02:52:49;;;;;;;;;;;;;;;20.43;25.87;98325.41;4961670;28;971;-77
2022/12/02 02:55:19;;;;;;;;;;;;;;;20.54;26.07;98329.66;4945748;28;1251;-77
2022/12/02 02:57:44;;;;;;;;;;;;;;;20.55;25.91;98324.81;4929544;28;1902;-77
2022/12/02 03:00:11;;;;;;;;;;;;;;;20.76;25.54;98318.78;4961624;28;1125;-76
2022/12/02 03:02:36;;;;;;;;;;;;;;;20.88;25.38;98333.50;4980947;28;936;-77
2022/12/02 03:05:02;;;;;;;;;;;;;;;20.37;25.96;98330.75;4997247;28;935;-77
2022/12/02 03:07:27;;;;;;;;;;;;;;;20.39;26.21;98324.66;4980799;28;929;-77
2022/12/02 03:09:53;;;;;;;;;;;;;;;20.69;25.94;98330.22;4997099;28;889;-77
2022/12/02 03:12:18;;;;;;;;;;;;;;;20.64;25.83;98330.72;5012353;28;1053;-77
2022/12/02 03:14:44;;;;;;;;;;;;;;;20.77;25.84;98326.03;5058454;28;957;-77
2022/12/02 03:17:09;;;;;;;;;;;;;;;20.87;25.44;98326.25;5016316;28;984;-77
2022/12/02 03:19:35;;;;;;;;;;;;;;;20.47;25.79;98329.00;4999692;28;1914;-77
2022/12/02 03:22:01;;;;;;;;;;;;;;;20.44;26.02;98333.44;5016292;28;970;-78
2022/12/02 03:24:26;;;;;;;;;;;;;;;20.24;26.54;98326.91;4983802;28;1002;-78
2022/12/02 03:26:52;;;;;;;;;;;;;;;20.46;25.94;98333.00;4999970;28;1025;-78
2022/12/02 03:29:17;;;;;;;;;;;;;;;20.55;25.79;98327.63;4983210;28;959;-78
2022/12/02 03:31:43;;;;;;;;;;;;;;;20.60;25.84;98332.81;5016185;28;923;-77
2022/12/02 03:34:08;;;;;;;;;;;;;;;20.69;25.59;98335.88;4983530;28;980;-77
2022/12/02 03:36:34;;;;;;;;;;;;;;;20.54;26.05;98331.69;4999551;28;1277;-77
2022/12/02 03:38:59;;;;;;;;;;;;;;;20.39;26.19;98333.13;5015801;28;1910;-79
2022/12/02 03:41:25;;;;;;;;;;;;;;;20.60;25.76;98326.34;5015979;28;996;-78
2022/12/02 03:43:50;;;;;;;;;;;;;;;20.69;25.79;98318.13;4999835;28;914;-77
2022/12/02 03:46:15;;;;;;;;;;;;;;;20.72;25.73;98323.69;5015724;28;934;-77
2022/12/02 03:48:41;;;;;;;;;;;;;;;20.77;25.40;98328.84;5028981;28;931;-77
2022/12/02 03:51:06;;;;;;;;;;;;;;;20.49;25.83;98332.19;5057906;28;896;-77
2022/12/02 03:53:33;;;;;;;;;;;;;;;20.33;26.07;98323.56;5035818;28;1138;-78
2022/12/02 03:56:00;;;;;;;;;;;;;;;20.60;25.81;98326.34;5044271;28;1224;-77
2022/12/02 03:58:33;;;;;;;;;;;;;;;20.54;26.03;98328.88;5044320;28;1910;-77
2022/12/02 04:00:58;;;;;;;;;;;;;;;20.72;25.66;98340.66;5051239;28;1301;-78
2022/12/02 04:03:23;;;;;;;;;;;;;;;20.67;25.79;98338.31;5057734;28;857;-78
2022/12/02 04:05:49;;;;;;;;;;;;;;;20.79;25.37;98334.91;5057332;28;920;-77
2022/12/02 04:08:14;;;;;;;;;;;;;;;20.65;25.66;98332.31;5057238;28;901;-78
2022/12/02 04:10:40;;;;;;;;;;;;;;;20.66;25.64;98348.03;5057356;28;913;-78
2022/12/02 04:13:05;;;;;;;;;;;;;;;20.66;25.55;98333.91;5057606;28;928;-78
2022/12/02 04:15:31;;;;;;;;;;;;;;;20.34;25.98;98330.78;5057339;28;936;-78
2022/12/02 04:17:56;;;;;;;;;;;;;;;20.26;26.10;98325.28;5038580;28;1910;-78
2022/12/02 04:20:21;;;;;;;;;;;;;;;20.78;25.60;98341.00;5057240;28;914;-78
2022/12/02 04:22:47;;;;;;;;;;;;;;;20.65;25.66;98340.78;5057003;28;938;-78
2022/12/02 04:25:12;;;;;;;;;;;;;;;20.57;25.87;98342.13;5056950;28;954;-78
2022/12/02 04:27:38;;;;;;;;;;;;;;;20.60;25.74;98337.66;5057337;28;949;-78
2022/12/02 04:30:04;;;;;;;;;;;;;;;20.74;25.50;98349.53;5056155;28;943;-78
2022/12/02 04:32:29;;;;;;;;;;;;;;;20.64;25.72;98344.06;5054678;28;925;-78
2022/12/02 04:34:54;;;;;;;;;;;;;;;20.33;25.97;98346.16;5057293;28;840;-78
2022/12/02 04:37:20;;;;;;;;;;;;;;;20.33;26.27;98346.97;5057302;28;1969;-78
2022/12/02 04:39:46;;;;;;;;;;;;;;;20.54;25.84;98359.97;5056999;28;880;-78
2022/12/02 04:42:11;;;;;;;;;;;;;;;20.66;25.86;98348.03;5056999;28;938;-79
2022/12/02 04:44:36;;;;;;;;;;;;;;;20.52;25.67;98353.94;5056596;28;967;-78
2022/12/02 04:47:02;;;;;;;;;;;;;;;20.58;25.56;98366.38;5056672;28;1223;-78
2022/12/02 04:49:27;;;;;;;;;;;;;;;20.33;26.00;98360.28;5057396;28;848;-78
2022/12/02 04:51:53;;;;;;;;;;;;;;;20.48;25.81;98370.16;5056473;28;952;-78
2022/12/02 04:54:18;;;;;;;;;;;;;;;20.57;25.74;98367.56;5038017;28;1003;-79
2022/12/02 04:56:43;;;;;;;;;;;;;;;20.54;25.83;98371.28;5056886;28;969;-79
2022/12/02 04:59:09;;;;;;;;;;;;;;;20.71;25.47;98372.19;5056471;28;1972;-78
2022/12/02 05:01:34;;;;;;;;;;;;;;;20.60;25.45;98372.38;5056575;28;1040;-78
2022/12/02 05:04:00;;;;;;;;;;;;;;;20.11;26.27;98374.75;5055672;28;895;-78
2022/12/02 05:06:25;;;;;;;;;;;;;;;20.30;26.00;98382.50;5056333;28;1022;-78
2022/12/02 05:08:51;;;;;;;;;;;;;;;20.42;25.96;98377.50;5056213;28;1015;-79
2022/12/02 05:11:16;;;;;;;;;;;;;;;20.65;25.74;98373.94;5053834;28;939;-78
2022/12/02 05:13:42;;;;;;;;;;;;;;;20.66;25.61;98369.88;5053702;28;980;-78
2022/12/02 05:16:07;;;;;;;;;;;;;;;20.64;25.73;98384.44;5053936;28;944;-78
2022/12/02 05:18:32;;;;;;;;;;;;;;;20.59;25.73;98376.44;5053963;28;1980;-77
2022/12/02 05:20:58;;;;;;;;;;;;;;;20.42;25.81;98377.50;5053817;28;953;-78
2022/12/02 05:23:23;;;;;;;;;;;;;;;20.44;25.87;98387.16;5020763;28;957;-78
2022/12/02 05:25:49;;;;;;;;;;;;;;;20.29;26.05;98392.22;5053663;28;1016;-78
2022/12/02 05:28:14;;;;;;;;;;;;;;;20.46;25.80;98386.72;5054053;28;912;-78
2022/12/02 05:30:40;;;;;;;;;;;;;;;20.71;25.69;98383.50;5037359;28;938;-78
2022/12/02 05:33:05;;;;;;;;;;;;;;;20.70;25.40;98379.88;5053713;28;1002;-78
2022/12/02 05:35:30;;;;;;;;;;;;;;;20.65;25.42;98380.38;5053457;28;1030;-78
2022/12/02 05:37:56;;;;;;;;;;;;;;;20.47;25.63;98382.72;5053564;28;1910;-78
2022/12/02 05:40:21;;;;;;;;;;;;;;;20.18;26.57;98391.59;5053907;28;964;-78
2022/12/02 05:42:47;;;;;;;;;;;;;;;20.63;25.66;98387.69;5055247;28;899;-78
2022/12/02 05:45:13;;;;;;;;;;;;;;;20.53;25.66;98389.47;5055784;28;861;-78
2022/12/02 05:47:39;;;;;;;;;;;;;;;20.50;25.67;98391.13;5055434;28;993;-77
2022/12/02 05:50:06;;;;;;;;;;;;;;;20.63;25.71;98394.16;5055465;28;952;-77
2022/12/02 05:52:31;;;;;;;;;;;;;;;20.47;25.74;98402.50;5054101;28;947;-78
2022/12/02 05:54:57;;;;;;;;;;;;;;;20.31;25.97;98400.25;5054798;28;1212;-78
2022/12/02 05:57:25;;;;;;;;;;;;;;;20.32;26.06;98412.38;5055716;28;1988;-78
2022/12/02 05:59:51;;;;;;;;;;;;;;;20.33;26.14;98408.34;5055433;28;900;-78
2022/12/02 06:02:21;;;;;;;;;;;;;;;20.62;25.50;98405.88;5054984;28;933;-78
2022/12/02 06:04:46;;;;;;;;;;;;;;;20.68;25.50;98407.00;5055346;28;869;-78
2022/12/02 06:07:12;;;;;;;;;;;;;;;20.77;25.55;98422.16;5055633;28;852;-77
2022/12/02 06:09:37;;;;;;;;;;;;;;;20.62;25.76;98428.50;5053612;28;966;-79
2022/12/02 06:12:09;;;;;;;;;;;;;;;20.22;26.14;98419.78;5036957;28;936;-78
2022/12/02 06:14:34;;;;;;;;;;;;;;;20.16;26.30;98422.28;5036664;28;1007;-78
2022/12/02 06:17:00;;;;;;;;;;;;;;;20.24;26.24;98426.59;5057607;28;1014;-78
2022/12/02 06:19:27;;;;;;;;;;;;;;;20.36;26.10;98430.06;5040368;28;1910;-78
2022/12/02 06:21:53;;;;;;;;;;;;;;;20.71;25.25;98421.06;5040339;28;989;-78
2022/12/02 06:24:26;;;;;;;;;;;;;;;20.99;24.88;98433.16;5057011;28;983;-77
2022/12/02 06:26:51;;;;;;;;;;;;;;;20.30;25.87;98433.38;5040855;28;890;-78
2022/12/02 06:29:17;;;;;;;;;;;;;;;20.32;25.84;98435.00;5040575;28;1075;-78
2022/12/02 06:31:43;;;;;;;;;;;;;;;20.44;25.82;98432.38;5040445;28;984;-78
2022/12/02 06:34:26;;;;;;;;;;;;;;;20.60;25.32;98431.75;5057142;28;949;-78
2022/12/02 06:36:52;;;;;;;;;;;;;;;20.64;25.49;98424.03;5056342;28;1175;-78
2022/12/02 06:39:19;;;;;;;;;;;;;;;20.76;25.14;98436.75;5040462;28;1973;-77
2022/12/02 06:41:44;;;;;;;;;;;;;;;20.68;25.29;98441.75;5059050;28;832;-78
2022/12/02 06:47:32;;;;;;;;;;;;;;;20.10;26.07;98446.56;5058728;28;934;-78
2022/12/02 06:50:04;;;;;;;;;;;;;;;20.38;25.76;98442.56;5059312;28;956;-78
2022/12/02 06:52:29;;;;;;;;;;;;;;;20.45;25.61;98445.28;5058767;28;922;-78
2022/12/02 06:54:57;;;;;;;;;;;;;;;20.57;25.55;98446.72;5057559;28;1345;-78
2022/12/02 06:57:22;;;;;;;;;;;;;;;20.70;25.09;98444.91;5057512;28;990;-76
2022/12/02 06:59:48;;;;;;;;;;;;;;;20.44;25.67;98451.38;5058453;28;850;-76
2022/12/02 07:02:26;;;;;;;;;;;;;;;20.56;25.50;98450.78;5057393;28;979;-77
2022/12/02 07:04:52;;;;;;;;;;;;;;;20.16;26.08;98453.38;5057085;28;958;-77
2022/12/02 07:07:27;;;;;;;;;;;;;;;20.33;25.69;98454.34;5057123;28;974;-77
2022/12/02 07:10:03;;;;;;;;;;;;;;;20.97;24.92;98455.41;5058599;28;983;-77
2022/12/02 07:12:35;;;;;;;;;;;;;;;21.19;24.57;98459.47;5058053;28;1245;-77
2022/12/02 07:15:06;;;;;;;;;;;;;;;20.38;25.50;98450.25;5039547;28;983;-77
2022/12/02 07:17:35;;;;;;;;;;;;;;;20.32;25.65;98457.59;5056821;28;1977;-77
2022/12/02 07:20:05;;;;;;;;;;;;;;;21.19;24.52;98465.13;5057913;28;930;-77
2022/12/02 07:22:33;;;;;;;;;;;;;;;21.22;24.29;98463.47;5056985;28;887;-77
2022/12/02 07:25:08;;;;;;;;;;;;;;;20.71;25.10;98463.47;5058170;28;869;-76
2022/12/02 07:27:35;;;;;;;;;;;;;;;20.73;25.09;98463.88;5057130;28;946;-77
2022/12/02 07:30:01;;;;;;;;;;;;;;;20.47;25.66;98467.50;5058069;28;852;-76
2022/12/02 07:32:26;;;;;;;;;;;;;;;20.35;25.50;98457.53;5056643;28;928;-77
2022/12/02 07:34:52;;;;;;;;;;;;;;;;;;5057662;28;974;-77
2022/12/02 07:37:17;;;;;;;;;;;;;;;20.44;25.59;98465.50;5057508;28;1179;-77
2022/12/02 07:39:43;;;;;;;;;;;;;;;20.57;25.43;98468.56;5056674;28;1926;-77
2022/12/02 07:42:08;;;;;;;;;;;;;;;20.69;25.24;98471.59;5057428;28;1049;-77
2022/12/02 07:44:34;;;;;;;;;;;;;;;20.51;25.33;98473.88;5057804;28;869;-77
2022/12/02 07:46:59;;;;;;;;;;;;;;;20.34;25.62;98472.09;5057220;28;856;-77
2022/12/02 07:49:25;;;;;;;;;;;;;;;20.66;25.59;98466.78;5057599;28;844;-76
2022/12/02 07:51:50;;;;;;;;;;;;;;;20.64;25.60;98474.91;5057506;28;941;-77
2022/12/02 07:54:16;;;;;;;;;;;;;;;20.70;25.21;98470.38;5057249;28;943;-77
2022/12/02 07:56:41;;;;;;;;;;;;;;;20.79;25.29;98487.59;5057361;28;925;-77
2022/12/02 07:59:07;;;;;;;;;;;;;;;20.41;25.70;98477.63;5057205;28;1976;-77
2022/12/02 08:01:32;;;;;;;;;;;;;;;20.45;25.69;98478.41;5057058;28;952;-77
2022/12/02 08:03:57;;;;;;;;;;;;;;;20.48;25.75;98477.59;5057017;28;904;-77
2022/12/02 08:06:23;;;;;;;;;;;;;;;20.39;25.63;98486.56;5057271;28;911;-76
2022/12/02 08:08:48;;;;;;;;;;;;;;;20.64;25.32;98480.56;5057150;28;911;-77
2022/12/02 08:11:14;;;;;;;;;;;;;;;20.80;25.02;98477.88;5057386;28;910;-77
2022/12/02 08:13:39;;;;;;;;;;;;;;;20.87;25.10;98488.28;5057015;28;1010;-76
2022/12/02 08:16:05;;;;;;;;;;;;;;;20.38;25.78;98479.31;5057272;28;940;-77
2022/12/02 08:18:30;;;;;;;;;;;;;;;20.53;25.45;98475.06;5039103;28;1985;-77
2022/12/02 08:20:56;;;;;;;;;;;;;;;20.47;25.66;98481.66;5056999;28;922;-77
2022/12/02 08:23:21;;;;;;;;;;;;;;;20.54;25.82;98481.53;5057011;28;815;-76
2022/12/02 08:25:47;;;;;;;;;;;;;;;20.75;25.13;98475.53;5056858;28;1058;-77
2022/12/02 08:28:13;;;;;;;;;;;;;;;20.67;25.25;98474.03;5037860;28;1018;-76
2022/12/02 08:30:39;;;;;;;;;;;;;;;20.46;25.39;98468.69;5039347;28;872;-77
2022/12/02 08:33:04;;;;;;;;;;;;;;;20.43;25.69;98486.50;5056718;28;970;-77
2022/12/02 08:35:30;;;;;;;;;;;;;;;20.13;25.99;98479.63;5056466;28;957;-77
2022/12/02 08:37:55;;;;;;;;;;;;;;;20.43;25.56;98480.84;5057081;28;1907;-77
2022/12/02 08:40:21;;;;;;;;;;;;;;;20.57;25.65;98480.66;5054388;28;1083;-77
2022/12/02 08:42:46;;;;;;;;;;;;;;;20.62;25.41;98493.53;5046061;28;1268;-76
2022/12/02 08:45:12;;;;;;;;;;;;;;;20.76;25.14;98485.63;5044501;28;1363;-76
2022/12/02 08:47:37;;;;;;;;;;;;;;;20.53;25.45;98486.38;5045492;28;1284;-76
2022/12/02 08:50:03;;;;;;;;;;;;;;;20.49;25.57;98487.66;5043998;28;1198;-76
2022/12/02 08:52:28;;;;;;;;;;;;;;;20.53;25.55;98488.41;5036271;28;954;-76
2022/12/02 08:54:56;;;;;;;;;;;;;;;20.69;25.33;98487.78;5036561;28;972;-76
2022/12/02 08:57:22;;;;;;;;;;;;;;;20.84;25.05;98489.16;5036772;28;938;-76
2022/12/02 08:59:47;;;;;;;;;;;;;;;20.69;25.26;98494.22;5036242;28;1971;-75
2022/12/02 09:02:13;;;;;;;;;;;;;;;20.60;25.82;98493.97;5036488;28;918;-76
2022/12/02 09:04:38;;;;;;;;;;;;;;;20.47;25.86;98492.94;5034088;28;898;-75
2022/12/02 09:07:03;;;;;;;;;;;;;;;20.43;25.74;98497.81;5036335;28;950;-76
2022/12/02 09:09:29;;;;;;;;;;;;;;;20.33;25.85;98487.47;5036670;28;908;-76
2022/12/02 09:11:54;;;;;;;;;;;;;;;20.39;25.80;98488.59;5036204;28;926;-76
2022/12/02 09:14:20;;;;;;;;;;;;;;;20.74;25.32;98490.91;5035972;28;879;-76
2022/12/02 09:16:45;;;;;;;;;;;;;;;20.64;25.68;98486.22;5018082;28;1001;-76
2022/12/02 09:19:12;;;;;;;;;;;;;;;20.63;25.47;98481.81;5035593;28;1914;-77
2022/12/02 09:21:38;;;;;;;;;;;;;;;20.27;26.20;98485.09;5033512;28;1160;-69
2022/12/02 09:24:04;;;;;;;;;;;;;;;19.64;27.13;98487.50;5035691;28;1048;-68
2022/12/02 09:26:29;;;;;;;;;;;;;;;20.53;25.78;98485.59;5035604;28;944;-69
2022/12/02 09:28:55;;;;;;;;;;;;;;;20.89;25.32;98476.56;5000402;28;1002;-69
2022/12/02 09:31:20;;;;;;;;;;;;;;;21.02;25.12;98477.53;5035409;28;986;-77
2022/12/02 09:33:46;;;;;;;;;;;;;;;20.53;25.51;98474.28;5035924;28;1556;-75
2022/12/02 09:36:11;;;;;;;;;;;;;;;20.27;26.30;98482.28;5046337;28;1330;-79
2022/12/02 09:38:37;;;;;;;;;;;;;;;20.54;25.75;98478.69;5045174;28;1977;-79
2022/12/02 09:41:02;;;;;;;;;;;;;;;20.81;25.39;98479.47;5046099;28;1444;-71
2022/12/02 09:43:28;;;;;;;;;;;;;;;20.30;26.47;98472.94;5043998;28;1449;-70
2022/12/02 09:45:53;;;;;;;;;;;;;;;19.99;26.78;98477.00;5046492;28;1276;-77
2022/12/02 09:48:19;;;;;;;;;;;;;;;20.65;25.79;98475.72;5054677;28;897;-77
2022/12/02 09:50:44;;;;;;;;;;;;;;;20.59;25.94;98478.22;5054016;28;878;-78
2022/12/02 09:53:11;;;;;;;;;;;;;;;20.79;25.55;98481.16;5055196;28;1075;-73
2022/12/02 09:55:36;;;;;;;;;;;;;;;20.49;25.88;98479.19;5053993;28;1047;-72
2022/12/02 09:58:28;;;;;;;;;;;;;;;20.27;26.59;98485.09;5054983;28;1901;-75
2022/12/02 10:00:53;;;;;;;;;;;;;;;20.14;26.57;98475.59;5033118;28;986;-71
2022/12/02 10:03:26;;;;;;;;;;;;;;;20.63;25.85;98473.31;5016481;28;1060;-76
2022/12/02 10:05:51;;;;;;;;;;;;;;;20.56;26.02;98479.06;5016497;28;936;-76
2022/12/02 10:08:21;;;;;;;;;;;;;;;20.46;26.03;98480.81;5000018;28;920;-76
2022/12/02 10:10:46;;;;;;;;;;;;;;;20.73;25.91;98478.00;4973942;28;962;-76
2022/12/02 10:13:12;;;;;;;;;;;;;;;20.61;26.00;98480.63;4973853;28;1036;-76
2022/12/02 10:15:38;;;;;;;;;;;;;;;20.40;26.42;98470.38;4973652;28;2125;-75
2022/12/02 10:18:14;;;;;;;;;;;;;;;20.35;26.12;98480.16;4973743;28;1977;-76
2022/12/02 10:20:39;;;;;;;;;;;;;;;20.34;26.26;98489.84;4973924;28;1048;-76
2022/12/02 10:23:18;;;;;;;;;;;;;;;20.39;26.41;98489.38;4974142;28;951;-76
2022/12/02 10:25:44;;;;;;;;;;;;;;;20.58;25.90;98476.63;4973666;28;999;-76
2022/12/02 10:28:19;;;;;;;;;;;;;;;20.72;25.99;98476.38;4973885;28;1053;-76
2022/12/02 10:30:48;;;;;;;;;;;;;;;20.69;25.78;98465.16;4972723;28;1117;-76
2022/12/02 10:33:14;;;;;;;;;;;;;;;20.83;25.62;98469.75;4956602;28;1282;-75
2022/12/02 10:35:46;;;;;;;;;;;;;;;20.69;25.83;98470.81;4972800;28;1160;-76
2022/12/02 10:38:31;;;;;;;;;;;;;;;20.40;26.20;98473.22;4971309;28;1942;-77
2022/12/02 10:41:15;;;;;;;;;;;;;;;20.07;26.88;98470.03;4975442;28;1388;-77
2022/12/02 10:43:42;;;;;;;;;;;;;;;20.42;26.38;98467.97;5044650;28;1193;-76
2022/12/02 10:46:08;;;;;;;;;;;;;;;20.55;26.12;98460.50;5024025;28;1229;-76
2022/12/02 10:48:36;;;;;;;;;;;;;;;20.63;26.04;98467.66;5042229;28;1323;-76
2022/12/02 10:51:02;;;;;;;;;;;;;;;20.79;25.70;98458.53;5026989;28;1162;-77
2022/12/02 10:53:28;;;;;;;;;;;;;;;20.39;26.21;98457.50;5042231;28;1269;-77
2022/12/02 10:55:54;;;;;;;;;;;;;;;20.24;26.27;98463.34;5033484;28;947;-77
2022/12/02 10:58:26;;;;;;;;;;;;;;;20.39;26.09;98463.16;5033700;28;1894;-77
2022/12/02 11:00:52;;;;;;;;;;;;;;;20.41;26.48;98458.66;5033320;28;852;-77
2022/12/02 11:03:19;;;;;;;;;;;;;;;20.48;26.36;98466.28;5036490;28;984;-77
2022/12/02 11:05:45;;;;;;;;;;;;;;;20.56;26.11;98470.59;5037024;28;1004;-77
2022/12/02 11:08:30;;;;;;;;;;;;;;;20.68;26.02;98464.34;5037074;28;941;-77
2022/12/02 11:11:10;;;;;;;;;;;;;;;20.25;26.40;98470.59;4995883;28;1412;-77
2022/12/02 11:13:50;;;;;;;;;;;;;;;20.24;26.47;98469.00;4980180;28;987;-76
2022/12/02 11:16:25;;;;;;;;;;;;;;;20.56;25.97;98464.94;4996188;28;1049;-77
2022/12/02 11:18:50;;;;;;;;;;;;;;;20.54;26.26;98464.56;4996055;28;1969;-77
2022/12/02 11:21:42;;;;;;;;;;;;;;;20.49;26.04;98467.88;4979785;28;1539;-76
2022/12/02 11:24:23;;;;;;;;;;;;;;;20.60;25.98;98471.34;4938180;29;1104;-76
2022/12/02 11:27:03;;;;;;;;;;;;;;;20.70;26.03;98478.84;4938387;29;936;-76
2022/12/02 11:30:07;;;;;;;;;;;;;;;20.51;25.92;98471.84;4937955;29;1026;-77
2022/12/02 11:32:35;;;;;;;;;;;;;;;19.86;27.05;98476.75;4918975;29;932;-77
2022/12/02 11:35:01;;;;;;;;;;;;;;;20.24;26.42;98477.47;4919120;29;1000;-77
2022/12/02 11:37:26;;;;;;;;;;;;;;;20.60;26.16;98479.81;4903233;29;1123;-76
2022/12/02 11:39:52;;;;;;;;;;;;;;;20.59;26.10;98481.06;4919331;29;1970;-76
2022/12/02 11:42:19;;;;;;;;;;;;;;;20.64;25.96;98474.91;4903105;29;934;-77
2022/12/02 11:44:44;;;;;;;;;;;;;;;20.66;25.82;98472.44;4919337;29;945;-77
2022/12/02 11:47:23;;;;;;;;;;;;;;;20.76;25.77;98484.81;4918726;29;1008;-76
2022/12/02 11:49:49;;;;;;;;;;;;;;;20.55;26.18;98477.47;4902626;29;1070;-77
2022/12/02 11:52:16;;;;;;;;;;;;;;;19.96;26.93;98486.31;4918934;29;970;-76
2022/12/02 11:54:45;;;;;;;;;;;;;;;20.16;26.86;98483.63;4918618;29;1050;-76
2022/12/02 11:57:26;;;;;;;;;;;;;;;20.47;26.42;98476.00;4902735;29;1067;-77
2022/12/02 11:59:51;;;;;;;;;;;;;;;20.43;26.18;98475.19;4922677;28;1911;-76
2022/12/02 12:02:18;;;;;;;;;;;;;;;20.71;26.03;98480.44;4982819;28;1064;-77
2022/12/02 12:04:43;;;;;;;;;;;;;;;20.79;25.75;98481.94;5037087;28;969;-76
2022/12/02 12:07:09;;;;;;;;;;;;;;;20.34;26.43;98483.41;5037365;28;852;-77
2022/12/02 12:09:34;;;;;;;;;;;;;;;20.32;26.20;98483.84;5036937;28;913;-77
2022/12/02 12:12:07;;;;;;;;;;;;;;;20.34;26.62;98489.06;5036033;28;934;-77
2022/12/02 12:14:32;;;;;;;;;;;;;;;20.34;26.38;98483.41;5035882;28;913;-76
2022/12/02 12:17:24;;;;;;;;;;;;;;;20.48;26.33;98484.03;5037305;28;902;-77
2022/12/02 12:19:50;;;;;;;;;;;;;;;20.61;25.88;98492.72;5034833;28;1906;-76
2022/12/02 12:22:25;;;;;;;;;;;;;;;20.66;25.85;98478.09;5036942;28;982;-77
2022/12/02 12:24:50;;;;;;;;;;;;;;;20.51;25.97;98482.38;5035454;28;967;-77
2022/12/02 12:27:33;;;;;;;;;;;;;;;20.29;26.40;98488.28;5036672;28;939;-77
2022/12/02 12:29:58;;;;;;;;;;;;;;;20.01;26.79;98477.38;5034497;28;941;-76
2022/12/02 12:32:24;;;;;;;;;;;;;;;20.24;26.65;98480.28;5034232;28;1021;-77
2022/12/02 12:34:49;;;;;;;;;;;;;;;20.34;26.27;98483.41;4984834;28;976;-77
2022/12/02 12:37:14;;;;;;;;;;;;;;;20.55;26.08;98478.28;5034148;28;1124;-77
2022/12/02 12:39:40;;;;;;;;;;;;;;;20.58;25.87;98481.47;5034564;28;1910;-77
2022/12/02 12:42:05;;;;;;;;;;;;;;;20.63;26.13;98478.97;5034289;28;949;-77
2022/12/02 12:44:31;;;;;;;;;;;;;;;20.29;26.32;98482.66;5034043;28;978;-77
2022/12/02 12:46:58;;;;;;;;;;;;;;;20.24;26.49;98485.94;5034164;28;990;-77
2022/12/02 12:49:24;;;;;;;;;;;;;;;20.27;26.56;98487.13;5017263;28;995;-77
2022/12/02 12:51:49;;;;;;;;;;;;;;;20.40;26.35;98493.81;5033987;28;896;-76
2022/12/02 12:54:14;;;;;;;;;;;;;;;20.48;26.04;98486.06;5034145;28;1059;-77
2022/12/02 12:56:40;;;;;;;;;;;;;;;20.62;26.08;98494.31;5017172;28;1073;-77
2022/12/02 12:59:05;;;;;;;;;;;;;;;20.56;25.85;98490.38;5033503;28;1898;-76
2022/12/02 13:01:31;;;;;;;;;;;;;;;20.52;26.16;98483.97;5035527;28;999;-77
2022/12/02 13:03:56;;;;;;;;;;;;;;;20.39;25.94;98491.41;5036290;28;980;-76
2022/12/02 13:06:21;;;;;;;;;;;;;;;19.92;26.96;98492.00;5036452;28;926;-76
2022/12/02 13:08:47;;;;;;;;;;;;;;;20.66;25.78;98500.72;5036188;28;947;-77
2022/12/02 13:11:12;;;;;;;;;;;;;;;20.47;26.21;98499.41;5036269;28;880;-76